Terminal Aerodrome Forecast
Issued by NWS

Home | Current Version | Previous Version | Text Only | Print | Product List | Glossary On
Versions: 1 2 3 4 5 6 7 8 9 10 11 12 13 14 15 16 17 18 19 20
000
FTUS46 KLOX 221740
TAFVNY
TAF
KVNY 221740Z 2218/2318 VRB05KT P6SM SCT030 BKN080
     FM222100 18008KT P6SM BKN040 BKN080
     FM230400 VRB04KT P6SM BKN050
     FM231000 VRB03KT P6SM BKN025=

USA.gov is the U.S. government's official web portal to all federal, state and local government web resources and services.